createdAt,value
2017-05-17T04:44:21.238Z,1108
2017-05-17T04:44:46.725Z,1112
2017-05-17T04:45:12.200Z,1120
2017-05-17T04:45:37.681Z,1128
2017-05-17T04:46:03.155Z,1144
2017-05-17T04:46:28.630Z,1156
2017-05-17T04:46:54.098Z,1168
2017-05-17T04:47:19.556Z,1184
2017-05-17T04:47:45.054Z,1192
2017-05-17T04:48:10.490Z,1196
2017-05-17T04:48:35.992Z,1204
2017-05-17T04:49:01.470Z,1212
2017-05-17T04:49:26.927Z,1224
2017-05-17T04:49:52.413Z,1228
2017-05-17T04:50:17.857Z,1236
2017-05-17T04:50:43.378Z,1248
2017-05-17T04:51:08.846Z,1256
2017-05-17T04:51:34.340Z,1264
2017-05-17T04:51:59.818Z,1264
2017-05-17T04:52:25.316Z,1268
2017-05-17T04:52:50.823Z,1276
2017-05-17T04:53:16.340Z,1284
2017-05-17T04:53:41.839Z,1284
2017-05-17T04:54:07.327Z,1292
2017-05-17T04:54:32.823Z,1292
2017-05-17T04:54:58.361Z,1296
2017-05-17T04:55:23.831Z,1292
2017-05-17T04:55:49.302Z,1280
2017-05-17T04:56:14.789Z,1272
2017-05-17T04:56:40.275Z,1260
2017-05-17T04:57:05.753Z,1252
2017-05-17T04:57:31.256Z,1236
2017-05-17T04:57:56.736Z,1228
2017-05-17T04:58:22.212Z,1224
2017-05-17T04:58:47.695Z,1220
2017-05-17T04:59:13.180Z,1220
2017-05-17T04:59:38.673Z,1216
2017-05-17T05:00:04.168Z,1212
2017-05-17T05:00:29.667Z,1216
2017-05-17T05:00:55.139Z,1220
2017-05-17T05:01:20.605Z,1224
2017-05-17T05:01:46.065Z,1236
2017-05-17T05:02:11.572Z,1244
2017-05-17T05:02:37.038Z,1256
2017-05-17T05:03:02.524Z,1268
2017-05-17T05:03:27.987Z,1280
2017-05-17T05:03:53.498Z,1292
2017-05-17T05:04:18.939Z,1288
2017-05-17T05:04:44.427Z,1284
2017-05-17T05:05:09.906Z,1272
2017-05-17T05:05:35.375Z,1260
2017-05-17T05:06:00.855Z,1248
2017-05-17T05:06:26.333Z,1256
2017-05-17T05:06:51.822Z,1260
2017-05-17T05:07:17.297Z,1276
2017-05-17T05:07:42.807Z,1284
2017-05-17T05:08:08.265Z,1296
2017-05-17T05:08:33.761Z,1308
2017-05-17T05:08:59.254Z,1308
2017-05-17T05:09:24.755Z,1292
2017-05-17T05:09:50.229Z,1272
2017-05-17T05:10:15.703Z,1252
2017-05-17T05:10:41.184Z,1236
2017-05-17T05:11:06.666Z,1228
2017-05-17T05:11:32.163Z,1236
2017-05-17T05:11:57.641Z,1256
2017-05-17T05:12:23.121Z,1288
2017-05-17T05:12:48.633Z,1320
2017-05-17T05:13:14.116Z,1360
2017-05-17T05:13:39.627Z,1396
2017-05-17T05:14:05.111Z,1432
2017-05-17T05:14:30.584Z,1472
2017-05-17T05:14:56.061Z,1508
2017-05-17T05:15:21.557Z,1536
2017-05-17T05:15:47.030Z,1552
2017-05-17T05:16:12.520Z,1556
2017-05-17T05:16:37.994Z,1564
2017-05-17T05:17:03.513Z,1584
2017-05-17T05:17:28.988Z,1616
2017-05-17T05:17:54.464Z,1648
2017-05-17T05:18:19.953Z,1680
2017-05-17T05:18:45.423Z,1708
2017-05-17T05:19:10.904Z,1748
2017-05-17T05:19:36.389Z,1780
2017-05-17T05:20:01.872Z,1808
2017-05-17T05:20:27.362Z,1836
2017-05-17T05:20:52.821Z,1856
2017-05-17T05:21:18.322Z,1888
2017-05-17T05:21:43.800Z,1920
2017-05-17T05:22:09.298Z,1952
2017-05-17T05:22:34.792Z,1976
2017-05-17T05:23:00.280Z,1996
2017-05-17T05:23:25.777Z,2028
2017-05-17T05:23:51.277Z,2064
2017-05-17T05:24:16.752Z,2088
2017-05-17T05:24:42.211Z,2112
2017-05-17T05:25:07.684Z,2132
2017-05-17T05:25:33.157Z,2160
2017-05-17T05:25:58.662Z,2188
2017-05-17T05:26:24.154Z,2208
2017-05-17T05:26:49.612Z,2220
2017-05-17T05:27:15.102Z,2228
2017-05-17T05:27:40.584Z,2232
2017-05-17T05:28:06.050Z,2228
2017-05-17T05:28:31.547Z,2224
2017-05-17T05:28:57.036Z,2224
2017-05-17T05:29:22.494Z,2232
2017-05-17T05:29:47.975Z,2252
2017-05-17T05:30:13.478Z,2284
2017-05-17T05:30:38.959Z,2332
2017-05-17T05:31:04.471Z,2380
2017-05-17T05:31:29.956Z,2428
2017-05-17T05:31:55.430Z,2484
2017-05-17T05:32:20.906Z,2536
2017-05-17T05:32:46.374Z,2592
2017-05-17T05:33:11.904Z,2640
2017-05-17T05:33:37.382Z,2680
2017-05-17T05:34:02.862Z,2720
2017-05-17T05:34:28.338Z,2760
2017-05-17T05:34:53.820Z,2796
2017-05-17T05:35:19.332Z,2844
2017-05-17T05:35:44.810Z,2896
2017-05-17T05:36:10.285Z,2952
2017-05-17T05:36:35.742Z,3000
2017-05-17T05:37:01.253Z,3040
2017-05-17T05:37:26.735Z,3072
2017-05-17T05:37:52.202Z,3116
2017-05-17T05:38:17.709Z,3152
2017-05-17T05:38:43.182Z,3176
2017-05-17T05:39:08.660Z,3196
2017-05-17T05:39:34.148Z,3220
2017-05-17T05:39:59.628Z,3236
2017-05-17T05:40:25.123Z,3268
2017-05-17T05:40:50.613Z,3284
2017-05-17T05:41:16.099Z,3320
2017-05-17T05:41:41.588Z,3340
2017-05-17T05:42:07.026Z,3364
2017-05-17T05:42:32.488Z,3384
2017-05-17T05:42:57.980Z,3404
2017-05-17T05:43:23.442Z,3428
2017-05-17T05:43:48.950Z,3452
2017-05-17T05:44:14.418Z,3488
2017-05-17T05:44:39.937Z,3528
2017-05-17T05:45:05.357Z,3568
2017-05-17T05:45:30.828Z,3616
2017-05-17T05:45:56.314Z,3660
2017-05-17T05:46:21.778Z,3696
2017-05-17T05:46:47.273Z,3732
2017-05-17T05:47:12.745Z,3768
2017-05-17T05:47:38.251Z,3800
2017-05-17T05:48:03.733Z,3824
2017-05-17T05:48:29.199Z,3848
2017-05-17T05:48:54.681Z,3876
2017-05-17T05:49:20.142Z,3888
2017-05-17T05:49:45.599Z,3900
2017-05-17T05:50:11.073Z,3912
2017-05-17T05:50:36.510Z,3924
2017-05-17T05:51:01.995Z,3936
2017-05-17T05:51:27.537Z,3960
2017-05-17T05:51:53.034Z,3988
2017-05-17T05:52:18.508Z,4016
2017-05-17T05:52:43.985Z,4032
2017-05-17T05:53:09.493Z,4048
2017-05-17T05:53:34.979Z,4072
2017-05-17T05:54:00.473Z,4100
2017-05-17T05:54:25.958Z,4128
2017-05-17T05:54:51.430Z,4156
2017-05-17T05:55:16.920Z,4184
2017-05-17T05:55:42.407Z,4216
2017-05-17T05:56:07.903Z,4248
2017-05-17T05:56:33.405Z,4280
2017-05-17T05:56:58.865Z,4316
2017-05-17T05:57:24.359Z,4340
2017-05-17T05:57:49.828Z,4380
2017-05-17T05:58:15.309Z,4416
2017-05-17T05:58:40.793Z,4456
2017-05-17T05:59:06.266Z,4492
2017-05-17T05:59:31.746Z,4524
2017-05-17T05:59:57.247Z,4556
2017-05-17T06:00:22.746Z,4588
2017-05-17T06:00:48.235Z,4616
2017-05-17T06:01:13.729Z,4624
2017-05-17T06:01:39.223Z,4652
2017-05-17T06:02:04.681Z,4680
2017-05-17T06:03:07.784Z,4736
2017-05-17T06:03:33.254Z,4748
2017-05-17T06:03:58.752Z,4768
2017-05-17T06:04:24.235Z,4788
2017-05-17T06:04:49.719Z,4808
2017-05-17T06:05:15.233Z,4836
2017-05-17T06:05:40.707Z,4860
2017-05-17T06:06:06.177Z,4892
2017-05-17T06:06:31.667Z,4916
2017-05-17T06:06:57.134Z,4940
2017-05-17T06:07:22.629Z,4960
2017-05-17T06:07:48.100Z,4976
2017-05-17T06:08:13.581Z,4992
2017-05-17T06:08:39.066Z,4996
2017-05-17T06:09:04.523Z,5020
2017-05-17T06:09:29.995Z,5040
2017-05-17T06:09:55.487Z,5048
2017-05-17T06:10:20.964Z,5052
2017-05-17T06:10:46.451Z,5076
2017-05-17T06:11:11.946Z,5104
2017-05-17T06:11:37.455Z,5124
2017-05-17T06:12:02.890Z,5144
2017-05-17T06:12:28.384Z,5156
2017-05-17T06:12:53.846Z,5168
2017-05-17T06:13:19.330Z,5180
2017-05-17T06:13:44.806Z,5188
2017-05-17T06:14:10.298Z,5192
2017-05-17T06:14:35.781Z,5204
2017-05-17T06:15:01.262Z,5224
2017-05-17T06:15:26.718Z,5236
2017-05-17T06:15:52.197Z,5252
2017-05-17T06:16:17.670Z,5272
2017-05-17T06:16:43.160Z,5292
2017-05-17T06:17:08.643Z,5316
2017-05-17T06:17:34.109Z,5348
2017-05-17T06:17:59.608Z,5376
2017-05-17T06:18:25.079Z,5400
2017-05-17T06:18:50.564Z,5416
2017-05-17T06:19:16.020Z,5444
2017-05-17T06:19:41.509Z,5468
2017-05-17T06:20:07.034Z,5500
2017-05-17T06:20:32.510Z,5516
2017-05-17T06:20:57.981Z,5508
2017-05-17T06:21:23.488Z,5508
2017-05-17T06:21:48.964Z,5500
2017-05-17T06:22:14.427Z,5492
2017-05-17T06:22:39.923Z,5480
2017-05-17T06:23:05.416Z,5464
2017-05-17T06:23:30.878Z,5448
2017-05-17T06:23:56.348Z,5420
2017-05-17T06:24:21.810Z,5388
2017-05-17T06:24:47.302Z,5344
2017-05-17T06:25:12.771Z,5308
2017-05-17T06:25:38.250Z,5280
2017-05-17T06:26:03.737Z,5244
2017-05-17T06:26:29.220Z,5196
2017-05-17T06:26:54.680Z,5144
2017-05-17T06:27:20.162Z,5096
2017-05-17T06:27:45.641Z,5048
2017-05-17T06:28:11.101Z,5004
2017-05-17T06:28:36.593Z,4964
2017-05-17T06:29:02.087Z,4916
2017-05-17T06:29:27.554Z,4872
2017-05-17T06:29:53.040Z,4844
2017-05-17T06:30:18.524Z,4832
2017-05-17T06:30:43.984Z,4832
2017-05-17T06:31:09.493Z,4844
2017-05-17T06:31:34.989Z,4856
2017-05-17T06:32:00.476Z,4876
2017-05-17T06:32:25.979Z,4888
2017-05-17T06:32:51.446Z,4916
2017-05-17T06:33:16.915Z,4948
2017-05-17T06:33:42.413Z,4988
2017-05-17T06:34:07.911Z,5020
2017-05-17T06:34:33.431Z,5060
2017-05-17T06:34:58.906Z,5108
2017-05-17T06:35:24.392Z,5132
2017-05-17T06:35:49.860Z,5144
2017-05-17T06:36:15.333Z,5172
2017-05-17T06:36:40.827Z,5200
2017-05-17T06:37:06.301Z,5204
2017-05-17T06:37:31.768Z,5196
2017-05-17T06:37:57.249Z,5164
2017-05-17T06:38:22.752Z,5212
2017-05-17T06:38:48.245Z,5244
2017-05-17T06:39:13.729Z,5252
2017-05-17T06:39:39.227Z,5248
2017-05-17T06:40:04.731Z,5256
2017-05-17T06:40:30.211Z,5272
2017-05-17T06:40:55.678Z,5300
2017-05-17T06:41:21.172Z,5332
2017-05-17T06:41:46.656Z,5372
2017-05-17T06:42:12.166Z,5408
2017-05-17T06:42:37.635Z,5456
2017-05-17T06:43:03.094Z,5504
2017-05-17T06:43:28.583Z,5532
2017-05-17T06:43:54.046Z,5572
2017-05-17T06:44:19.519Z,5592
2017-05-17T06:44:45.007Z,5632
2017-05-17T06:45:10.504Z,5652
2017-05-17T06:45:35.992Z,5664
2017-05-17T06:46:01.462Z,5688
2017-05-17T06:46:26.931Z,5704
2017-05-17T06:46:52.406Z,5720
2017-05-17T06:47:17.884Z,5740
2017-05-17T06:47:43.365Z,5772
2017-05-17T06:48:08.858Z,5804
2017-05-17T06:48:34.360Z,5832
2017-05-17T06:48:59.838Z,5856
2017-05-17T06:49:25.304Z,5892
2017-05-17T06:49:50.796Z,5920
2017-05-17T06:50:16.267Z,5980
2017-05-17T06:50:41.714Z,6036
2017-05-17T06:51:07.231Z,6072
2017-05-17T06:51:32.730Z,6124
2017-05-17T06:51:58.201Z,6156
2017-05-17T06:52:23.695Z,6200
2017-05-17T06:52:49.152Z,6236
2017-05-17T06:53:14.655Z,6252
2017-05-17T06:53:40.127Z,6228
2017-05-17T06:54:05.611Z,6204
2017-05-17T06:54:31.111Z,6084
2017-05-17T06:54:56.579Z,5972
2017-05-17T06:55:22.096Z,5892
2017-05-17T06:55:47.582Z,5756
2017-05-17T06:56:13.073Z,5628
2017-05-17T06:56:38.589Z,5520
2017-05-17T06:57:04.072Z,5428
2017-05-17T06:57:29.534Z,5372
2017-05-17T06:57:55.010Z,5316
2017-05-17T06:58:20.475Z,5228
2017-05-17T06:58:45.946Z,5140
2017-05-17T06:59:11.440Z,5108
2017-05-17T06:59:36.929Z,4992
2017-05-17T07:00:02.444Z,4864
2017-05-17T07:00:27.962Z,4764
2017-05-17T07:00:53.437Z,4696
2017-05-17T07:01:18.909Z,4628
2017-05-17T07:01:44.390Z,4564
2017-05-17T07:02:09.855Z,4520
2017-05-17T07:02:35.321Z,4468
2017-05-17T07:03:00.803Z,4456
2017-05-17T07:03:26.281Z,4392
2017-05-17T07:03:51.739Z,4376
2017-05-17T07:04:17.195Z,4404
2017-05-17T07:04:42.668Z,4412
2017-05-17T07:05:08.136Z,4436
2017-05-17T07:05:33.602Z,4452
2017-05-17T07:05:59.092Z,4712
2017-05-17T07:06:24.611Z,4756
2017-05-17T07:06:50.096Z,4584
2017-05-17T07:07:15.555Z,4768
2017-05-17T07:07:41.061Z,4808
2017-05-17T07:08:06.527Z,4980
2017-05-17T07:08:32.012Z,4920
2017-05-17T07:08:57.471Z,4912
2017-05-17T07:09:22.919Z,5352
2017-05-17T07:09:48.389Z,4872
2017-05-17T07:10:13.905Z,4752
2017-05-17T07:10:39.378Z,4604
2017-05-17T07:11:04.852Z,4584
2017-05-17T07:11:30.340Z,4528
2017-05-17T07:11:55.837Z,4596
2017-05-17T07:12:21.315Z,4736
2017-05-17T07:12:46.795Z,4820
2017-05-17T07:13:12.285Z,4884
2017-05-17T07:13:37.762Z,4948
2017-05-17T07:14:03.275Z,4932
2017-05-17T07:14:28.741Z,5004
2017-05-17T07:14:54.209Z,5144
2017-05-17T07:15:19.699Z,5108
2017-05-17T07:15:45.176Z,4744
2017-05-17T07:16:10.636Z,4684
2017-05-17T07:16:36.100Z,4656
2017-05-17T07:17:01.601Z,4596
2017-05-17T07:17:27.065Z,4324
2017-05-17T07:17:52.573Z,4172
2017-05-17T07:18:18.042Z,3924
2017-05-17T07:18:43.534Z,3804
2017-05-17T07:19:09.004Z,3668
2017-05-17T07:19:34.527Z,3680
2017-05-17T07:20:00.047Z,3708
2017-05-17T07:20:25.508Z,3588
2017-05-17T07:20:51.002Z,3540
2017-05-17T07:21:16.495Z,3616
2017-05-17T07:21:42.005Z,3648
2017-05-17T07:22:07.504Z,3604
2017-05-17T07:22:32.976Z,3584
2017-05-17T07:22:58.469Z,3636
2017-05-17T07:23:23.942Z,3692
2017-05-17T07:23:49.459Z,3752
2017-05-17T07:24:14.942Z,3812
2017-05-17T07:24:40.408Z,3908
2017-05-17T07:25:05.874Z,4020
2017-05-17T07:25:31.342Z,4036
2017-05-17T07:25:56.862Z,4248
2017-05-17T07:26:22.360Z,4416
2017-05-17T07:26:47.869Z,4616
2017-05-17T07:27:13.299Z,4792
2017-05-17T07:27:38.785Z,4792
2017-05-17T07:28:04.279Z,4952
2017-05-17T07:28:29.786Z,4940
2017-05-17T07:28:55.285Z,4920
2017-05-17T07:29:20.798Z,4896
2017-05-17T07:29:46.296Z,4880
2017-05-17T07:30:11.790Z,4968
2017-05-17T07:30:37.267Z,4920
2017-05-17T07:31:02.749Z,4904
2017-05-17T07:31:28.245Z,5020
2017-05-17T07:31:53.751Z,5004
2017-05-17T07:32:19.226Z,4988
2017-05-17T07:32:44.722Z,4976
2017-05-17T07:33:10.227Z,5040
2017-05-17T07:33:35.713Z,5036
2017-05-17T07:34:01.211Z,5068
2017-05-17T07:34:26.684Z,5052
2017-05-17T07:34:52.148Z,4940
2017-05-17T07:35:17.642Z,4988
2017-05-17T07:35:43.122Z,5060
2017-05-17T07:36:08.609Z,5036
2017-05-17T07:36:34.089Z,5144
2017-05-17T07:36:59.575Z,5236
2017-05-17T07:37:25.044Z,5216
2017-05-17T07:37:50.552Z,5304
2017-05-17T07:38:16.037Z,5256
2017-05-17T07:38:41.516Z,5320
2017-05-17T07:39:07.012Z,5392
2017-05-17T07:39:32.514Z,5588
2017-05-17T07:39:57.989Z,5376
2017-05-17T07:40:23.461Z,5688
2017-05-17T07:40:48.967Z,5460
2017-05-17T07:41:14.454Z,5612
2017-05-17T07:41:39.929Z,5540
2017-05-17T07:42:05.423Z,5428
2017-05-17T07:42:30.889Z,5284
2017-05-17T07:42:56.367Z,5272
2017-05-17T07:43:21.857Z,5300
2017-05-17T07:43:47.365Z,5356
2017-05-17T07:44:12.854Z,5532
2017-05-17T07:44:38.359Z,5596
2017-05-17T07:45:03.836Z,5640
2017-05-17T07:45:29.337Z,5692
2017-05-17T07:45:54.815Z,5768
2017-05-17T07:46:20.337Z,5792
2017-05-17T07:46:45.810Z,5808
2017-05-17T07:47:11.270Z,5776
2017-05-17T07:47:36.773Z,5800
2017-05-17T07:48:02.255Z,5836
2017-05-17T07:48:27.736Z,5880
2017-05-17T07:48:53.225Z,5904
2017-05-17T07:49:18.702Z,5912
2017-05-17T07:49:44.220Z,5920
2017-05-17T07:50:09.709Z,5904
2017-05-17T07:50:35.204Z,5960
2017-05-17T07:51:00.684Z,5972
2017-05-17T07:51:26.156Z,5772
2017-05-17T07:51:51.638Z,5728
2017-05-17T07:52:17.117Z,5692
2017-05-17T07:52:42.627Z,5592
2017-05-17T07:53:08.135Z,5788
2017-05-17T07:53:33.606Z,5812
2017-05-17T07:53:59.112Z,6192
2017-05-17T07:54:24.586Z,7112
2017-05-17T07:54:50.111Z,8972
2017-05-17T07:55:15.576Z,11212
2017-05-17T07:55:41.052Z,12344
2017-05-17T07:56:06.582Z,13152
2017-05-17T07:56:32.069Z,14300
2017-05-17T07:56:57.540Z,14480
2017-05-17T07:57:23.000Z,13908
2017-05-17T07:57:48.504Z,12752
2017-05-17T07:58:14.024Z,11280
2017-05-17T07:58:39.500Z,10216
2017-05-17T07:59:04.983Z,8680
2017-05-17T07:59:30.466Z,7680
2017-05-17T07:59:55.943Z,6932
2017-05-17T08:00:21.413Z,6584
2017-05-17T08:00:46.952Z,6344
2017-05-17T08:01:12.451Z,6260
2017-05-17T08:01:37.931Z,6016
2017-05-17T08:02:03.394Z,5900
2017-05-17T08:02:28.849Z,5812
2017-05-17T08:02:54.334Z,5776
2017-05-17T08:03:19.815Z,5640
2017-05-17T08:03:45.290Z,5556
2017-05-17T08:04:10.753Z,5552
2017-05-17T08:04:36.253Z,5424
2017-05-17T08:05:01.727Z,5432
2017-05-17T08:05:27.199Z,5372
2017-05-17T08:05:52.667Z,5292
2017-05-17T08:06:18.170Z,5264
2017-05-17T08:06:43.633Z,5340
2017-05-17T08:07:09.089Z,5340
2017-05-17T08:07:34.567Z,5308
2017-05-17T08:08:00.059Z,5252
2017-05-17T08:08:25.558Z,5400
2017-05-17T08:08:51.079Z,5468
2017-05-17T08:09:16.560Z,5528
2017-05-17T08:09:42.040Z,5364
2017-05-17T08:10:07.505Z,5512
2017-05-17T08:10:32.992Z,5512
2017-05-17T08:10:58.497Z,5396
2017-05-17T08:11:23.939Z,5384
2017-05-17T08:11:49.423Z,5376
2017-05-17T08:12:14.928Z,5308
2017-05-17T08:12:40.393Z,5276
2017-05-17T08:13:05.880Z,5248
2017-05-17T08:13:31.359Z,5212
2017-05-17T08:13:56.816Z,5148
2017-05-17T08:14:22.274Z,5148
2017-05-17T08:14:47.751Z,5160
2017-05-17T08:15:13.222Z,5144
2017-05-17T08:15:38.713Z,5048
2017-05-17T08:16:04.218Z,4740
2017-05-17T08:16:29.703Z,4648
2017-05-17T08:16:55.182Z,4272
2017-05-17T08:17:20.650Z,4428
2017-05-17T08:17:46.128Z,4800
2017-05-17T08:18:11.627Z,5016
2017-05-17T08:18:37.094Z,5212
2017-05-17T08:19:02.579Z,5304
2017-05-17T08:19:28.038Z,5344
2017-05-17T08:19:53.499Z,5416
2017-05-17T08:20:18.977Z,5452
2017-05-17T08:20:44.459Z,5460
2017-05-17T08:21:09.934Z,5444
2017-05-17T08:21:35.412Z,5436
2017-05-17T08:22:00.890Z,5424
2017-05-17T08:22:26.344Z,5432
2017-05-17T08:22:51.839Z,5432
2017-05-17T08:23:17.294Z,5408
2017-05-17T08:23:42.756Z,5380
2017-05-17T08:24:08.215Z,5388
2017-05-17T08:24:33.701Z,5392
2017-05-17T08:24:59.178Z,5368
2017-05-17T08:25:24.655Z,5344
2017-05-17T08:25:50.131Z,5276
2017-05-17T08:26:15.586Z,5252
2017-05-17T08:26:41.112Z,5268
2017-05-17T08:27:06.596Z,5260
2017-05-17T08:27:32.104Z,5248
2017-05-17T08:27:57.589Z,5240
2017-05-17T08:28:23.064Z,5208
2017-05-17T08:28:48.544Z,5156
2017-05-17T08:29:14.043Z,5160
2017-05-17T08:29:39.530Z,5224
2017-05-17T08:30:05.007Z,5200
2017-05-17T08:30:30.486Z,5204
2017-05-17T08:30:55.946Z,5172
2017-05-17T08:31:21.419Z,5156
2017-05-17T08:31:46.890Z,5112
2017-05-17T08:32:12.361Z,5064
2017-05-17T08:32:37.831Z,5040
2017-05-17T08:33:03.308Z,5012
2017-05-17T08:33:28.773Z,4956
2017-05-17T08:33:54.241Z,4940
2017-05-17T08:34:19.719Z,4896
2017-05-17T08:34:45.199Z,4896
2017-05-17T08:35:10.704Z,4920
2017-05-17T08:35:36.180Z,4936
2017-05-17T08:36:59.723Z,4908
2017-05-17T08:37:25.218Z,4888
2017-05-17T08:37:50.692Z,4924
2017-05-17T08:38:16.177Z,4932
2017-05-17T08:38:41.669Z,4964
2017-05-17T08:39:07.162Z,4976
2017-05-17T08:39:32.628Z,4952
2017-05-17T08:39:58.139Z,4956
2017-05-17T08:40:23.583Z,4932
2017-05-17T08:40:49.055Z,4888
2017-05-17T08:41:14.563Z,4920
2017-05-17T08:41:40.045Z,4920
2017-05-17T08:42:05.523Z,4924
2017-05-17T08:42:30.970Z,4912
2017-05-17T08:42:56.471Z,4884
2017-05-17T08:43:21.954Z,4940
2017-05-17T08:43:47.403Z,4972
2017-05-17T08:44:12.887Z,4976
2017-05-17T08:44:38.358Z,5000
2017-05-17T08:45:03.821Z,4980
2017-05-17T08:45:29.289Z,4972
2017-05-17T08:45:54.753Z,4924
2017-05-17T08:46:20.236Z,4920
2017-05-17T08:46:45.735Z,4852
2017-05-17T08:47:11.213Z,4772
2017-05-17T08:47:36.692Z,4720
2017-05-17T08:48:02.162Z,4680
2017-05-17T08:48:27.616Z,4648
2017-05-17T08:48:53.077Z,4616
2017-05-17T08:49:18.534Z,4592
2017-05-17T08:49:44.011Z,4592
2017-05-17T08:50:09.541Z,4576
2017-05-17T08:50:35.014Z,4572
2017-05-17T08:51:00.533Z,4508
2017-05-17T08:51:26.020Z,4552
2017-05-17T08:51:51.526Z,4572
2017-05-17T08:52:17.018Z,4508
2017-05-17T08:52:42.542Z,4540
2017-05-17T08:53:08.028Z,4512
2017-05-17T08:53:33.531Z,4460
2017-05-17T08:53:59.018Z,4492
2017-05-17T08:54:24.519Z,4520
2017-05-17T08:54:49.990Z,4520
2017-05-17T08:55:15.472Z,4544
2017-05-17T08:55:40.960Z,4512
2017-05-17T08:56:06.460Z,4516
2017-05-17T08:56:31.944Z,4444
2017-05-17T08:56:57.422Z,4560
2017-05-17T08:57:22.882Z,4580
2017-05-17T08:57:48.350Z,4620
2017-05-17T08:58:13.818Z,4680
2017-05-17T08:58:39.306Z,4684
2017-05-17T08:59:04.793Z,4616
2017-05-17T08:59:30.261Z,4736
2017-05-17T08:59:55.766Z,4700
2017-05-17T09:00:21.242Z,4684
2017-05-17T09:00:46.724Z,4764
2017-05-17T09:01:12.217Z,4744
2017-05-17T09:01:37.678Z,4780
2017-05-17T09:02:03.167Z,4776
2017-05-17T09:02:28.629Z,4776
2017-05-17T09:02:54.112Z,4768
2017-05-17T09:03:19.578Z,4748
2017-05-17T09:03:45.069Z,4736
2017-05-17T09:04:10.532Z,4704
2017-05-17T09:04:36.030Z,4744
2017-05-17T09:05:01.515Z,4752
2017-05-17T09:05:26.998Z,4764
2017-05-17T09:05:52.479Z,4740
2017-05-17T09:06:17.982Z,4704
2017-05-17T09:06:43.453Z,4708
2017-05-17T09:07:08.942Z,4692
2017-05-17T09:07:34.440Z,4728
2017-05-17T09:07:59.945Z,4748
2017-05-17T09:08:25.453Z,4724
2017-05-17T09:08:50.908Z,4700
2017-05-17T09:09:16.376Z,4672
2017-05-17T09:09:41.875Z,4656
2017-05-17T09:10:07.340Z,4616
2017-05-17T09:10:32.829Z,4572
2017-05-17T09:10:58.337Z,4580
2017-05-17T09:11:23.814Z,4560
2017-05-17T09:11:49.310Z,4620
2017-05-17T09:12:14.806Z,4660
2017-05-17T09:12:40.289Z,4684
2017-05-17T09:13:05.766Z,4680
2017-05-17T09:13:31.254Z,4700
2017-05-17T09:13:56.750Z,4696
2017-05-17T09:14:22.233Z,4716
2017-05-17T09:14:47.751Z,4688
2017-05-17T09:15:13.219Z,4652
2017-05-17T09:15:38.685Z,4520
2017-05-17T09:16:04.176Z,4416
2017-05-17T09:16:29.654Z,4344
2017-05-17T09:16:55.153Z,4180
2017-05-17T09:17:20.639Z,4104
2017-05-17T09:17:46.095Z,4076
2017-05-17T09:18:11.609Z,4064
2017-05-17T09:18:37.077Z,4072
2017-05-17T09:19:02.561Z,4076
2017-05-17T09:19:28.062Z,4108
2017-05-17T09:19:53.550Z,4088
2017-05-17T09:20:19.028Z,4088
2017-05-17T09:20:44.510Z,4100
2017-05-17T09:21:09.981Z,4136
2017-05-17T09:21:35.498Z,4132
2017-05-17T09:22:01.004Z,4128
2017-05-17T09:22:26.459Z,4104
2017-05-17T09:22:51.912Z,4044
2017-05-17T09:23:17.416Z,3972
2017-05-17T09:23:42.890Z,3988
2017-05-17T09:24:08.369Z,4044
2017-05-17T09:24:33.885Z,4024
2017-05-17T09:24:59.366Z,4012
2017-05-17T09:25:24.844Z,3992
2017-05-17T09:25:50.316Z,3964
2017-05-17T09:26:15.817Z,3968
2017-05-17T09:26:41.301Z,3956
2017-05-17T09:27:06.811Z,3956
2017-05-17T09:27:32.285Z,3696
2017-05-17T09:27:57.755Z,3892
2017-05-17T09:28:23.246Z,3888
2017-05-17T09:28:48.746Z,3832
2017-05-17T09:29:14.212Z,3892
2017-05-17T09:29:39.729Z,3892
2017-05-17T09:30:05.212Z,3908
2017-05-17T09:30:30.701Z,3924
2017-05-17T09:30:56.163Z,3908
2017-05-17T09:31:21.671Z,3876
2017-05-17T09:31:47.168Z,3832
2017-05-17T09:32:12.636Z,3820
2017-05-17T09:32:38.119Z,3816
2017-05-17T09:33:03.622Z,3808
2017-05-17T09:33:29.119Z,3800
2017-05-17T09:33:54.580Z,3800
2017-05-17T09:34:20.062Z,3816
2017-05-17T09:34:45.570Z,3820
2017-05-17T09:35:11.092Z,3808
2017-05-17T09:35:36.501Z,3788
2017-05-17T09:36:02.003Z,3772
2017-05-17T09:36:27.474Z,3756
2017-05-17T09:36:52.937Z,3740
2017-05-17T09:37:18.433Z,3728
2017-05-17T09:37:43.932Z,3732
2017-05-17T09:38:09.420Z,3732
2017-05-17T09:38:34.942Z,3716
2017-05-17T09:39:00.432Z,3712
2017-05-17T09:39:25.891Z,3700
2017-05-17T09:39:51.360Z,3676
2017-05-17T09:40:16.855Z,3656
2017-05-17T09:40:42.384Z,3628
2017-05-17T09:41:07.847Z,3628
2017-05-17T09:41:33.320Z,3624
2017-05-17T09:41:58.792Z,3620
2017-05-17T09:42:24.315Z,3608
2017-05-17T09:42:49.794Z,3596
2017-05-17T09:43:15.265Z,3576
2017-05-17T09:43:40.746Z,3552
2017-05-17T09:44:06.261Z,3536
2017-05-17T09:44:31.805Z,3548
2017-05-17T09:44:57.288Z,3556
2017-05-17T09:45:22.755Z,3556
2017-05-17T09:45:48.278Z,3556
2017-05-17T09:46:13.765Z,3548
2017-05-17T09:46:39.238Z,3528
2017-05-17T09:47:04.712Z,3504
2017-05-17T09:47:30.218Z,3492
2017-05-17T09:47:55.691Z,3476
2017-05-17T09:48:21.193Z,3472
2017-05-17T09:48:46.660Z,3472
2017-05-17T09:49:12.157Z,3448
2017-05-17T09:49:37.629Z,3456
2017-05-17T09:50:03.112Z,3464
2017-05-17T09:50:28.594Z,3464
2017-05-17T09:50:54.069Z,3468
2017-05-17T09:51:19.536Z,3460
2017-05-17T09:51:45.012Z,3452
2017-05-17T09:52:10.490Z,3444
2017-05-17T09:52:35.965Z,3424
2017-05-17T09:53:01.442Z,3412
2017-05-17T09:53:26.932Z,3380
2017-05-17T09:53:52.394Z,3388
2017-05-17T09:54:17.882Z,3396
2017-05-17T09:54:43.370Z,3388
2017-05-17T09:55:08.904Z,3384
2017-05-17T09:55:34.396Z,3380
2017-05-17T09:55:59.871Z,3372
2017-05-17T09:56:25.342Z,3352
2017-05-17T09:56:50.829Z,3316
2017-05-17T09:57:16.372Z,3296
2017-05-17T09:57:41.870Z,3276
2017-05-17T09:58:07.340Z,3268
2017-05-17T09:58:32.847Z,3252
2017-05-17T09:58:58.355Z,3252
2017-05-17T09:59:23.871Z,3256
2017-05-17T09:59:49.340Z,3252
2017-05-17T10:00:14.797Z,3248
2017-05-17T10:00:40.376Z,3252
2017-05-17T10:01:05.784Z,3252
2017-05-17T10:01:31.263Z,3260
2017-05-17T10:01:56.744Z,3256
2017-05-17T10:02:22.225Z,3260
2017-05-17T10:02:47.693Z,3260
2017-05-17T10:03:13.196Z,3244
2017-05-17T10:03:38.680Z,3232
2017-05-17T10:04:04.178Z,3228
2017-05-17T10:04:29.661Z,3228
2017-05-17T10:04:55.108Z,3224
2017-05-17T10:05:20.582Z,3256
2017-05-17T10:05:46.071Z,3308
2017-05-17T10:06:11.576Z,3344
2017-05-17T10:06:37.037Z,3332
2017-05-17T10:07:02.532Z,3304
2017-05-17T10:07:28.028Z,3280
2017-05-17T10:07:53.504Z,3236
2017-05-17T10:08:18.955Z,3204
2017-05-17T10:08:44.459Z,3204
2017-05-17T10:09:09.921Z,3192
2017-05-17T10:09:35.401Z,3180
2017-05-17T10:10:00.892Z,3156
2017-05-17T10:10:26.364Z,3140
2017-05-17T10:10:51.835Z,3112
2017-05-17T10:11:17.339Z,3100
2017-05-17T10:11:42.868Z,3092
2017-05-17T10:12:08.400Z,3088
2017-05-17T10:12:33.878Z,3096
2017-05-17T10:12:59.380Z,3096
2017-05-17T10:13:24.886Z,3084
2017-05-17T10:13:50.349Z,3060
2017-05-17T10:14:15.843Z,3044
2017-05-17T10:14:41.344Z,3024
2017-05-17T10:15:06.837Z,3036
2017-05-17T10:15:32.299Z,3048
2017-05-17T10:15:57.822Z,3060
2017-05-17T10:16:23.297Z,3076
2017-05-17T10:16:48.777Z,3064
2017-05-17T10:17:14.242Z,3032
2017-05-17T10:17:39.731Z,2992
2017-05-17T10:18:05.206Z,2948
2017-05-17T10:18:30.745Z,2912
2017-05-17T10:18:56.239Z,2896
2017-05-17T10:19:21.705Z,2888
2017-05-17T10:19:47.178Z,2880
2017-05-17T10:20:12.650Z,2868
2017-05-17T10:20:38.132Z,2860
2017-05-17T10:21:03.615Z,2864
2017-05-17T10:21:29.110Z,2848
2017-05-17T10:21:54.557Z,2828
2017-05-17T10:22:20.055Z,2820
2017-05-17T10:22:45.516Z,2820
2017-05-17T10:23:11.007Z,2824
2017-05-17T10:23:36.473Z,2840
2017-05-17T10:24:01.944Z,2848
2017-05-17T10:24:27.410Z,2832
2017-05-17T10:24:52.907Z,2808